createdAt,value
2023-04-15T00:01:32.654Z,95363.41
2023-04-15T00:03:59.070Z,95366.41
2023-04-15T00:06:25.431Z,95365.13
2023-04-15T00:08:51.868Z,95358.88
2023-04-15T00:11:18.155Z,95370.22
2023-04-15T00:13:44.507Z,95368.69
2023-04-15T00:16:10.969Z,95356.44
2023-04-15T00:18:37.320Z,95365.13
2023-04-15T00:21:03.635Z,95363.31
2023-04-15T00:23:29.927Z,95363.94
2023-04-15T00:25:56.228Z,95358.03
2023-04-15T00:28:22.543Z,95358.91
2023-04-15T00:30:48.878Z,95360.50
2023-04-15T00:33:15.169Z,95357.09
2023-04-15T00:35:41.514Z,95358.66
2023-04-15T00:38:07.820Z,95367.97
2023-04-15T00:40:34.123Z,95370.44
2023-04-15T00:43:00.450Z,95372.97
2023-04-15T00:45:26.757Z,95370.66
2023-04-15T00:47:53.134Z,95365.09
2023-04-15T00:50:19.475Z,95361.00
2023-04-15T00:52:45.778Z,95359.88
2023-04-15T00:55:12.073Z,95360.88
2023-04-15T00:57:38.382Z,95355.66
2023-04-15T01:00:04.695Z,95348.78
2023-04-15T01:02:31.104Z,95356.22
2023-04-15T01:04:57.519Z,95354.66
2023-04-15T01:07:24.190Z,95349.09
2023-04-15T01:09:50.487Z,95357.00
2023-04-15T01:12:16.802Z,95355.44
2023-04-15T01:14:43.100Z,95348.06
2023-04-15T01:17:09.396Z,95357.88
2023-04-15T01:19:35.737Z,95365.88
2023-04-15T01:22:02.066Z,95365.53
2023-04-15T01:24:28.353Z,95368.09
2023-04-15T01:26:54.673Z,95358.53
2023-04-15T01:29:20.981Z,95358.00
2023-04-15T01:31:47.312Z,95354.09
2023-04-15T01:34:13.683Z,95351.97
2023-04-15T01:36:39.979Z,95356.09
2023-04-15T01:39:06.276Z,95352.88
2023-04-15T01:41:32.589Z,95363.22
2023-04-15T01:43:58.887Z,95355.28
2023-04-15T01:46:25.242Z,95367.31
2023-04-15T01:48:51.584Z,95365.66
2023-04-15T01:51:17.881Z,95363.97
2023-04-15T01:53:44.171Z,95359.75
2023-04-15T01:56:10.486Z,95356.09
2023-04-15T01:58:36.779Z,95359.41
2023-04-15T02:01:03.238Z,95354.31
2023-04-15T02:03:29.810Z,95347.31
2023-04-15T02:05:56.191Z,95349.44
2023-04-15T02:08:22.486Z,95348.19
2023-04-15T02:10:48.786Z,95347.53
2023-04-15T02:13:15.087Z,95342.53
2023-04-15T02:15:41.461Z,95344.66
2023-04-15T02:18:07.758Z,95341.84
2023-04-15T02:20:34.039Z,95346.31
2023-04-15T02:23:00.324Z,95351.41
2023-04-15T02:25:26.739Z,95349.06
2023-04-15T02:27:53.041Z,95355.75
2023-04-15T02:30:19.337Z,95351.25
2023-04-15T02:32:45.739Z,95349.47
2023-04-15T02:35:12.123Z,95348.28
2023-04-15T02:37:38.415Z,95336.53
2023-04-15T02:40:04.718Z,95345.75
2023-04-15T02:42:31.014Z,95342.50
2023-04-15T02:44:57.305Z,95348.38
2023-04-15T02:47:23.619Z,95337.94
2023-04-15T02:49:49.926Z,95345.44
2023-04-15T02:52:16.212Z,95333.88
2023-04-15T02:54:42.536Z,95331.00
2023-04-15T02:57:08.852Z,95341.03
2023-04-15T02:59:35.177Z,95334.94
2023-04-15T03:02:01.571Z,95333.69
2023-04-15T03:04:27.885Z,95337.81
2023-04-15T03:06:54.176Z,95348.81
2023-04-15T03:09:20.481Z,95340.28
2023-04-15T03:11:46.766Z,95340.31
2023-04-15T03:14:13.049Z,95334.19
2023-04-15T03:16:39.369Z,95341.31
2023-04-15T03:19:05.660Z,95336.41
2023-04-15T03:21:31.945Z,95339.06
2023-04-15T03:23:58.257Z,95345.03
2023-04-15T03:26:24.700Z,95331.19
2023-04-15T03:28:51.037Z,95333.75
2023-04-15T03:31:17.427Z,95329.75
2023-04-15T03:33:43.724Z,95329.53
2023-04-15T03:36:10.025Z,95326.88
2023-04-15T03:38:36.348Z,95334.63
2023-04-15T03:41:02.641Z,95331.38
2023-04-15T03:43:28.952Z,95327.66
2023-04-15T03:45:55.261Z,95325.31
2023-04-15T03:48:21.594Z,95324.75
2023-04-15T03:50:47.908Z,95320.31
2023-04-15T03:53:14.226Z,95327.75
2023-04-15T03:55:40.516Z,95327.25
2023-04-15T03:58:06.812Z,95326.44
2023-04-15T04:00:33.133Z,95326.44
2023-04-15T04:02:59.569Z,95335.50
2023-04-15T04:05:25.960Z,95329.25
2023-04-15T04:07:52.282Z,95324.31
2023-04-15T04:10:18.584Z,95328.50
2023-04-15T04:12:44.861Z,95324.69
2023-04-15T04:15:11.166Z,95325.69
2023-04-15T04:17:37.503Z,95324.00
2023-04-15T04:20:03.836Z,95327.38
2023-04-15T04:22:30.141Z,95329.88
2023-04-15T04:24:56.426Z,95329.25
2023-04-15T04:27:22.700Z,95324.94
2023-04-15T04:29:49.006Z,95326.41
2023-04-15T04:32:15.312Z,95313.59
2023-04-15T04:34:41.639Z,95326.63
2023-04-15T04:37:08.006Z,95317.59
2023-04-15T04:39:34.318Z,95320.63
2023-04-15T04:42:00.645Z,95319.06
2023-04-15T04:44:26.956Z,95325.34
2023-04-15T04:46:53.246Z,95322.72
2023-04-15T04:49:19.535Z,95333.06
2023-04-15T04:51:45.841Z,95329.75
2023-04-15T04:54:12.130Z,95319.84
2023-04-15T04:56:38.529Z,95328.00
2023-04-15T04:59:04.855Z,95323.03
2023-04-15T05:01:31.197Z,95324.59
2023-04-15T05:03:57.648Z,95328.72
2023-04-15T05:06:24.032Z,95327.56
2023-04-15T05:08:50.329Z,95327.16
2023-04-15T05:11:16.627Z,95332.16
2023-04-15T05:13:42.935Z,95334.03
2023-04-15T05:16:09.248Z,95323.56
2023-04-15T05:18:35.690Z,95326.34
2023-04-15T05:21:01.995Z,95327.25
2023-04-15T05:23:28.293Z,95326.50
2023-04-15T05:25:54.570Z,95329.72
2023-04-15T05:28:20.893Z,95324.69
2023-04-15T05:30:47.193Z,95324.25
2023-04-15T05:33:13.489Z,95323.81
2023-04-15T05:35:39.792Z,95321.59
2023-04-15T05:38:06.075Z,95331.06
2023-04-15T05:40:32.374Z,95317.97
2023-04-15T05:42:58.723Z,95320.75
2023-04-15T05:45:25.003Z,95321.06
2023-04-15T05:47:51.338Z,95323.31
2023-04-15T05:50:17.659Z,95320.50
2023-04-15T05:52:43.950Z,95320.13
2023-04-15T05:55:10.253Z,95321.53
2023-04-15T05:57:36.545Z,95318.66
2023-04-15T06:00:02.822Z,95322.69
2023-04-15T06:02:29.167Z,95313.69
2023-04-15T06:04:55.554Z,95321.78
2023-04-15T06:07:22.002Z,95319.84
2023-04-15T06:09:48.290Z,95322.63
2023-04-15T06:12:14.610Z,95315.78
2023-04-15T06:14:40.896Z,95324.56
2023-04-15T06:17:07.208Z,95318.19
2023-04-15T06:19:33.519Z,95325.28
2023-04-15T06:21:59.805Z,95320.78
2023-04-15T06:24:26.086Z,95324.44
2023-04-15T06:26:52.387Z,95325.56
2023-04-15T06:29:18.666Z,95322.03
2023-04-15T06:31:44.988Z,95318.81
2023-04-15T06:34:11.311Z,95319.72
2023-04-15T06:36:37.606Z,95316.50
2023-04-15T06:39:04.064Z,95322.03
2023-04-15T06:41:30.630Z,95318.63
2023-04-15T06:43:56.918Z,95320.31
2023-04-15T06:46:23.333Z,95318.75
2023-04-15T06:48:49.720Z,95315.19
2023-04-15T06:51:16.011Z,95319.84
2023-04-15T06:53:42.311Z,95329.81
2023-04-15T06:56:08.636Z,95318.81
2023-04-15T06:58:34.912Z,95321.94
2023-04-15T07:01:01.211Z,95322.41
2023-04-15T07:03:27.611Z,95324.59
2023-04-15T07:05:53.912Z,95319.16
2023-04-15T07:08:20.187Z,95319.69
2023-04-15T07:10:46.485Z,95316.50
2023-04-15T07:13:12.768Z,95319.84
2023-04-15T07:15:39.060Z,95313.69
2023-04-15T07:18:05.392Z,95316.44
2023-04-15T07:20:31.670Z,95323.81
2023-04-15T07:22:57.977Z,95317.03
2023-04-15T07:25:24.277Z,95315.22
2023-04-15T07:27:50.562Z,95311.59
2023-04-15T07:30:16.845Z,95310.44
2023-04-15T07:32:43.249Z,95317.59
2023-04-15T07:35:09.576Z,95314.63
2023-04-15T07:37:35.861Z,95317.22
2023-04-15T07:40:02.238Z,95321.94
2023-04-15T07:42:28.558Z,95320.41
2023-04-15T07:44:54.856Z,95329.66
2023-04-15T07:47:21.244Z,95331.69
2023-04-15T07:49:47.602Z,95334.19
2023-04-15T07:52:13.881Z,95338.50
2023-04-15T07:54:40.221Z,95340.38
2023-04-15T07:57:06.496Z,95345.59
2023-04-15T07:59:32.773Z,95354.44
2023-04-15T08:01:59.096Z,95353.63
2023-04-15T08:04:25.577Z,95354.25
2023-04-15T08:06:52.143Z,95352.22
2023-04-15T08:09:18.452Z,95352.03
2023-04-15T08:11:44.745Z,95358.16
2023-04-15T08:14:11.040Z,95356.41
2023-04-15T08:16:37.501Z,95349.22
2023-04-15T08:19:04.085Z,95359.91
2023-04-15T08:21:30.528Z,95353.84
2023-04-15T08:23:56.842Z,95361.69
2023-04-15T08:26:23.129Z,95364.09
2023-04-15T08:28:49.416Z,95368.50
2023-04-15T08:31:15.752Z,95364.69
2023-04-15T08:33:42.090Z,95372.09
2023-04-15T08:36:08.394Z,95377.06
2023-04-15T08:38:34.728Z,95373.63
2023-04-15T08:41:00.997Z,95378.88
2023-04-15T08:43:27.277Z,95382.94
2023-04-15T08:45:53.576Z,95390.31
2023-04-15T08:48:19.860Z,95391.13
2023-04-15T08:50:46.140Z,95393.06
2023-04-15T08:53:12.462Z,95397.94
2023-04-15T08:55:38.770Z,95403.44
2023-04-15T08:58:05.069Z,95397.38
2023-04-15T09:00:31.413Z,95394.16
2023-04-15T09:02:57.756Z,95406.28
2023-04-15T09:05:24.048Z,95416.97
2023-04-15T09:07:50.377Z,95413.75
2023-04-15T09:10:16.680Z,95406.44
2023-04-15T09:12:42.972Z,95410.81
2023-04-15T09:15:09.263Z,95417.78
2023-04-15T09:17:35.540Z,95418.94
2023-04-15T09:20:01.853Z,95415.09
2023-04-15T09:22:28.183Z,95423.25
2023-04-15T09:24:54.479Z,95426.91
2023-04-15T09:27:20.773Z,95431.63
2023-04-15T09:29:47.076Z,95435.34
2023-04-15T09:32:13.382Z,95429.59
2023-04-15T09:34:39.683Z,95431.25
2023-04-15T09:37:07.578Z,95436.22
2023-04-15T09:39:34.236Z,95432.31
2023-04-15T09:42:00.532Z,95438.56
2023-04-15T09:44:26.854Z,95440.63
2023-04-15T09:46:53.154Z,95440.34
2023-04-15T09:49:19.511Z,95450.53
2023-04-15T09:51:54.344Z,95456.34
2023-04-15T09:54:27.897Z,95457.28
2023-04-15T09:56:54.196Z,95465.69
2023-04-15T09:59:21.836Z,95461.34
2023-04-15T10:01:48.386Z,95463.97
2023-04-15T10:04:15.151Z,95461.44
2023-04-15T10:06:41.713Z,95469.13
2023-04-15T10:09:08.016Z,95466.09
2023-04-15T10:11:34.329Z,95466.25
2023-04-15T10:14:00.878Z,95468.84
2023-04-15T10:16:27.620Z,95472.88
2023-04-15T10:18:54.010Z,95470.81
2023-04-15T10:21:20.299Z,95468.88
2023-04-15T10:23:46.655Z,95469.97
2023-04-15T10:26:12.971Z,95477.84
2023-04-15T10:28:39.269Z,95477.50
2023-04-15T10:31:05.608Z,95488.16
2023-04-15T10:33:31.965Z,95490.66
2023-04-15T10:35:58.253Z,95496.56
2023-04-15T10:38:24.542Z,95496.81
2023-04-15T10:40:50.930Z,95502.72
2023-04-15T10:43:17.215Z,95505.63
2023-04-15T10:45:43.505Z,95504.31
2023-04-15T10:48:11.765Z,95501.97
2023-04-15T10:50:38.108Z,95516.75
2023-04-15T10:53:04.408Z,95515.97
2023-04-15T10:55:30.712Z,95523.41
2023-04-15T10:57:57.102Z,95520.38
2023-04-15T11:00:23.406Z,95524.97
2023-04-15T11:02:49.903Z,95519.72
2023-04-15T11:05:16.339Z,95521.97
2023-04-15T11:07:42.664Z,95528.97
2023-04-15T11:10:09.010Z,95533.66
2023-04-15T11:12:35.303Z,95553.50
2023-04-15T11:15:01.684Z,95540.91
2023-04-15T11:17:28.050Z,95537.63
2023-04-15T11:19:54.386Z,95544.84
2023-04-15T11:22:20.680Z,95547.50
2023-04-15T11:24:46.991Z,95543.13
2023-04-15T11:27:13.296Z,95548.47
2023-04-15T11:29:39.577Z,95550.03
2023-04-15T11:32:05.951Z,95560.47
2023-04-15T11:34:32.930Z,95557.25
2023-04-15T11:37:00.426Z,95567.41
2023-04-15T11:39:26.734Z,95568.00
2023-04-15T11:41:53.038Z,95574.25
2023-04-15T11:44:19.326Z,95575.91
2023-04-15T11:46:45.715Z,95578.94
2023-04-15T11:49:12.013Z,95575.72
2023-04-15T11:51:38.303Z,95577.66
2023-04-15T11:54:04.900Z,95579.84
2023-04-15T11:56:31.470Z,95586.06
2023-04-15T11:58:57.770Z,95581.69
2023-04-15T12:01:24.083Z,95600.28
2023-04-15T12:03:50.755Z,95587.66
2023-04-15T12:06:17.193Z,95603.50
2023-04-15T12:08:43.743Z,95601.56
2023-04-15T12:11:10.035Z,95612.69
2023-04-15T12:13:36.320Z,95604.81
2023-04-15T12:16:02.782Z,95603.13
2023-04-15T12:18:29.120Z,95607.72
2023-04-15T12:20:55.426Z,95614.94
2023-04-15T12:23:21.759Z,95622.06
2023-04-15T12:25:48.062Z,95627.47
2023-04-15T12:28:14.388Z,95632.38
2023-04-15T12:30:40.698Z,95635.47
2023-04-15T12:33:07.018Z,95634.78
2023-04-15T12:35:33.336Z,95639.56
2023-04-15T12:37:59.652Z,95649.31
2023-04-15T12:40:25.939Z,95658.13
2023-04-15T12:42:52.226Z,95646.63
2023-04-15T12:45:18.543Z,95659.53
2023-04-15T12:47:44.941Z,95657.28
2023-04-15T12:50:11.269Z,95667.41
2023-04-15T12:52:37.567Z,95670.31
2023-04-15T12:55:03.853Z,95669.78
2023-04-15T12:57:30.162Z,95675.94
2023-04-15T12:59:56.457Z,95667.94
2023-04-15T13:02:22.869Z,95677.56
2023-04-15T13:04:49.274Z,95686.94
2023-04-15T13:07:15.642Z,95684.16
2023-04-15T13:09:41.951Z,95695.28
2023-04-15T13:12:08.241Z,95693.44
2023-04-15T13:14:34.580Z,95690.78
2023-04-15T13:17:00.875Z,95699.09
2023-04-15T13:19:27.179Z,95702.47
2023-04-15T13:21:53.525Z,95703.81
2023-04-15T13:24:19.804Z,95709.69
2023-04-15T13:26:46.400Z,95708.97
2023-04-15T13:29:13.519Z,95719.06
2023-04-15T13:31:39.885Z,95712.97
2023-04-15T13:34:06.395Z,95727.38
2023-04-15T13:36:32.982Z,95727.97
2023-04-15T13:39:00.382Z,95724.97
2023-04-15T13:41:26.665Z,95734.31
2023-04-15T13:43:52.964Z,95730.13
2023-04-15T13:46:19.364Z,95738.47
2023-04-15T13:48:45.689Z,95742.69
2023-04-15T13:51:11.998Z,95743.63
2023-04-15T13:53:39.733Z,95746.66
2023-04-15T13:56:06.243Z,95750.47
2023-04-15T13:58:32.583Z,95752.22
2023-04-15T14:00:58.900Z,95756.31
2023-04-15T14:03:25.404Z,95757.66
2023-04-15T14:05:51.865Z,95761.34
2023-04-15T14:08:18.194Z,95763.66
2023-04-15T14:10:44.485Z,95775.06
2023-04-15T14:13:10.803Z,95773.06
2023-04-15T14:15:37.090Z,95775.81
2023-04-15T14:18:03.435Z,95780.25
2023-04-15T14:20:29.784Z,95778.78
2023-04-15T14:22:56.090Z,95779.28
2023-04-15T14:25:32.679Z,95783.97
2023-04-15T14:28:00.233Z,95785.47
2023-04-15T14:30:26.530Z,95792.06
2023-04-15T14:32:52.898Z,95800.41
2023-04-15T14:35:19.241Z,95802.91
2023-04-15T14:37:45.535Z,95811.44
2023-04-15T14:40:11.835Z,95815.69
2023-04-15T14:42:38.149Z,95815.56
2023-04-15T14:45:04.469Z,95823.34
2023-04-15T14:47:30.822Z,95823.34
2023-04-15T14:49:57.187Z,95828.66
2023-04-15T14:52:23.486Z,95841.59
2023-04-15T14:54:49.779Z,95842.00
2023-04-15T14:57:16.096Z,95844.28
2023-04-15T14:59:42.385Z,95852.28
2023-04-15T15:02:08.871Z,95851.13
2023-04-15T15:04:35.413Z,95845.16
2023-04-15T15:07:01.726Z,95855.06
2023-04-15T15:09:28.028Z,95855.22
2023-04-15T15:11:54.346Z,95868.06
2023-04-15T15:14:20.658Z,95868.88
2023-04-15T15:16:46.951Z,95875.03
2023-04-15T15:19:13.483Z,95867.81
2023-04-15T15:21:39.777Z,95876.75
2023-04-15T15:24:06.071Z,95884.94
2023-04-15T15:26:32.387Z,95893.66
2023-04-15T15:28:58.704Z,95892.50
2023-04-15T15:31:25.040Z,95891.53
2023-04-15T15:33:51.400Z,95895.44
2023-04-15T15:36:17.684Z,95893.63
2023-04-15T15:38:43.970Z,95899.91
2023-04-15T15:41:10.291Z,95898.53
2023-04-15T15:43:36.600Z,95902.09
2023-04-15T15:46:02.917Z,95903.94
2023-04-15T15:48:29.267Z,95902.56
2023-04-15T15:50:55.545Z,95908.88
2023-04-15T15:53:21.830Z,95917.50
2023-04-15T15:55:48.141Z,95916.63
2023-04-15T15:58:14.449Z,95927.97
2023-04-15T16:00:40.767Z,95926.50
2023-04-15T16:03:07.911Z,95941.25
2023-04-15T16:05:34.465Z,95931.00
2023-04-15T16:08:00.801Z,95944.91
2023-04-15T16:10:27.129Z,95947.81
2023-04-15T16:12:53.423Z,95946.13
2023-04-15T16:15:19.717Z,95950.53
2023-04-15T16:17:46.190Z,95949.91
2023-04-15T16:20:12.528Z,95948.63
2023-04-15T16:22:38.878Z,95951.84
2023-04-15T16:25:05.197Z,95958.72
2023-04-15T16:27:31.506Z,95962.88
2023-04-15T16:29:57.815Z,95970.00
2023-04-15T16:32:24.142Z,95969.56
2023-04-15T16:34:50.442Z,95975.94
2023-04-15T16:37:16.719Z,95968.66
2023-04-15T16:39:43.078Z,95974.56
2023-04-15T16:42:09.375Z,95987.13
2023-04-15T16:44:35.656Z,95995.47
2023-04-15T16:47:01.967Z,95989.38
2023-04-15T16:49:28.265Z,95999.91
2023-04-15T16:51:54.684Z,96001.75
2023-04-15T16:54:21.047Z,96005.72
2023-04-15T16:56:47.335Z,96017.72
2023-04-15T16:59:13.649Z,96024.53
2023-04-15T17:01:40.215Z,96028.19
2023-04-15T17:04:06.586Z,96026.97
2023-04-15T17:06:32.942Z,96022.63
2023-04-15T17:08:59.273Z,96019.56
2023-04-15T17:11:25.567Z,96028.66
2023-04-15T17:13:51.846Z,96029.63
2023-04-15T17:16:18.199Z,96039.41
2023-04-15T17:18:44.514Z,96045.75
2023-04-15T17:21:10.802Z,96042.31
2023-04-15T17:23:37.130Z,96048.94
2023-04-15T17:26:03.468Z,96052.66
2023-04-15T17:28:29.778Z,96056.63
2023-04-15T17:30:56.167Z,96059.56
2023-04-15T17:33:50.555Z,96063.66
2023-04-15T17:36:08.755Z,96076.28
2023-04-15T17:38:35.167Z,96073.06
2023-04-15T17:41:01.456Z,96086.69
2023-04-15T17:43:27.836Z,96076.13
2023-04-15T17:45:54.132Z,96088.97
2023-04-15T17:48:20.439Z,96099.44
2023-04-15T17:50:46.813Z,96098.72
2023-04-15T17:53:13.114Z,96097.59
2023-04-15T17:55:39.419Z,96104.66
2023-04-15T17:58:05.755Z,96103.00
2023-04-15T18:00:32.056Z,96114.06
2023-04-15T18:02:58.503Z,96120.34
2023-04-15T18:05:25.036Z,96127.59
2023-04-15T18:07:51.329Z,96124.19
2023-04-15T18:10:17.632Z,96123.97
2023-04-15T18:12:43.944Z,96121.63
2023-04-15T18:15:10.250Z,96131.41
2023-04-15T18:17:36.615Z,96141.88
2023-04-15T18:20:02.967Z,96136.31
2023-04-15T18:22:29.263Z,96140.63
2023-04-15T18:24:55.561Z,96123.78
2023-04-15T18:27:21.883Z,96112.72
2023-04-15T18:29:48.196Z,96122.81
2023-04-15T18:32:14.496Z,96140.72
2023-04-15T18:34:40.811Z,96149.47
2023-04-15T18:37:07.131Z,96148.22
2023-04-15T18:39:33.442Z,96155.41
2023-04-15T18:41:59.770Z,96160.94
2023-04-15T18:44:26.078Z,96161.38
2023-04-15T18:46:52.387Z,96167.91
2023-04-15T18:49:18.766Z,96172.44
2023-04-15T18:51:45.074Z,96175.63
2023-04-15T18:54:11.363Z,96175.97
2023-04-15T18:56:37.680Z,96181.31
2023-04-15T18:59:26.981Z,96190.00
2023-04-15T19:01:50.285Z,96199.00
2023-04-15T19:04:16.661Z,96198.41
2023-04-15T19:06:42.974Z,96217.34
2023-04-15T19:09:09.286Z,96209.69
2023-04-15T19:11:35.638Z,96215.88
2023-04-15T19:14:01.947Z,96214.03
2023-04-15T19:16:28.296Z,96218.38
2023-04-15T19:18:54.601Z,96231.13
2023-04-15T19:21:20.889Z,96238.91
2023-04-15T19:23:47.205Z,96248.19
2023-04-15T19:26:13.495Z,96253.16
2023-04-15T19:28:39.782Z,96255.75
2023-04-15T19:31:06.133Z,96262.00
2023-04-15T19:33:32.438Z,96260.97
2023-04-15T19:35:58.722Z,96268.00
2023-04-15T19:38:25.083Z,96261.56
2023-04-15T19:40:51.369Z,96266.72
2023-04-15T19:43:17.650Z,96267.19
2023-04-15T19:45:43.984Z,96268.91
2023-04-15T19:48:10.306Z,96269.38
2023-04-15T19:50:36.602Z,96276.91
2023-04-15T19:53:02.961Z,96271.25
2023-04-15T19:55:29.251Z,96271.03
2023-04-15T19:57:55.541Z,96277.69
2023-04-15T20:00:21.876Z,96281.06
2023-04-15T20:02:48.421Z,96287.41
2023-04-15T20:05:14.991Z,96285.75
2023-04-15T20:07:41.311Z,96288.03
2023-04-15T20:10:08.615Z,96283.75
2023-04-15T20:12:50.138Z,96281.44
2023-04-15T20:15:18.799Z,96285.06
2023-04-15T20:17:45.112Z,96284.34
2023-04-15T20:20:11.435Z,96280.63
2023-04-15T20:22:37.749Z,96284.97
2023-04-15T20:25:04.042Z,96282.72
2023-04-15T20:27:30.349Z,96282.19
2023-04-15T20:29:56.667Z,96298.75
2023-04-15T20:32:23.003Z,96288.84
2023-04-15T20:34:49.348Z,96284.97
2023-04-15T20:37:15.682Z,96286.97
2023-04-15T20:39:42.058Z,96297.22
2023-04-15T20:42:08.371Z,96301.44
2023-04-15T20:44:34.684Z,96305.78
2023-04-15T20:47:01.039Z,96303.88
2023-04-15T20:49:27.366Z,96302.38
2023-04-15T20:51:53.685Z,96304.50
2023-04-15T20:54:19.976Z,96300.00
2023-04-15T20:56:46.276Z,96311.63
2023-04-15T20:59:12.642Z,96314.81
2023-04-15T21:01:38.980Z,96314.13
2023-04-15T21:04:05.321Z,96322.53
2023-04-15T21:06:31.654Z,96318.13
2023-04-15T21:08:57.950Z,96327.47
2023-04-15T21:11:45.827Z,96326.88
2023-04-15T21:14:10.534Z,96333.78
2023-04-15T21:16:36.866Z,96330.00
2023-04-15T21:19:03.464Z,96333.19
2023-04-15T21:21:29.929Z,96323.22
2023-04-15T21:23:56.207Z,96332.25
2023-04-15T21:26:22.502Z,96328.03
2023-04-15T21:28:48.877Z,96331.56
2023-04-15T21:31:15.172Z,96328.78
2023-04-15T21:33:41.461Z,96339.38
2023-04-15T21:36:07.773Z,96346.72
2023-04-15T21:38:34.071Z,96349.78
2023-04-15T21:41:00.361Z,96360.94
2023-04-15T21:43:27.271Z,96359.00
2023-04-15T21:46:23.578Z,96341.25
2023-04-15T21:48:39.848Z,96347.69
2023-04-15T21:51:06.156Z,96350.94
2023-04-15T21:53:32.449Z,96350.75
2023-04-15T21:55:58.748Z,96352.19
2023-04-15T21:58:25.048Z,96356.22
2023-04-15T22:00:51.414Z,96361.88
2023-04-15T22:03:17.945Z,96368.19
2023-04-15T22:05:44.263Z,96362.06
2023-04-15T22:08:10.560Z,96360.94
2023-04-15T22:10:36.862Z,96366.84
2023-04-15T22:13:03.155Z,96361.41
2023-04-15T22:15:29.450Z,96366.09
2023-04-15T22:17:55.790Z,96365.13
2023-04-15T22:20:22.095Z,96357.09
2023-04-15T22:22:48.409Z,96359.34
2023-04-15T22:25:14.723Z,96358.97
2023-04-15T22:27:41.042Z,96357.28
2023-04-15T22:30:07.363Z,96365.13
2023-04-15T22:32:33.738Z,96357.69
2023-04-15T22:35:00.079Z,96365.91
2023-04-15T22:37:26.393Z,96363.16
2023-04-15T22:39:52.732Z,96359.06
2023-04-15T22:42:19.032Z,96363.03
2023-04-15T22:44:45.328Z,96372.56
2023-04-15T22:47:11.648Z,96368.84
2023-04-15T22:49:37.938Z,96382.88
2023-04-15T22:52:04.234Z,96383.88
2023-04-15T22:54:30.545Z,96386.97
2023-04-15T22:56:56.845Z,96385.06
2023-04-15T22:59:23.149Z,96390.28
2023-04-15T23:01:49.605Z,96396.63
2023-04-15T23:04:27.476Z,96389.81
2023-04-15T23:06:54.860Z,96392.72
2023-04-15T23:09:21.167Z,96391.91
2023-04-15T23:11:47.478Z,96395.22
2023-04-15T23:14:13.800Z,96399.31
2023-04-15T23:16:40.143Z,96403.25
2023-04-15T23:19:06.569Z,96397.63
2023-04-15T23:21:32.934Z,96400.78
2023-04-15T23:23:59.226Z,96397.97
2023-04-15T23:26:25.520Z,96409.38
2023-04-15T23:28:51.831Z,96407.72
2023-04-15T23:31:18.141Z,96402.78
2023-04-15T23:33:44.447Z,96406.91
2023-04-15T23:36:10.782Z,96401.06
2023-04-15T23:38:37.078Z,96399.28
2023-04-15T23:41:03.367Z,96396.19
2023-04-15T23:43:29.683Z,96390.25
2023-04-15T23:45:55.979Z,96409.94
2023-04-15T23:48:22.270Z,96407.13
2023-04-15T23:50:48.583Z,96402.75
2023-04-15T23:53:14.905Z,96402.00
2023-04-15T23:55:41.201Z,96411.34
2023-04-15T23:58:07.592Z,96412.84
